createdAt,value
2018-10-19T00:00:37.500Z,38.83
2018-10-19T00:03:06.965Z,38.23
2018-10-19T00:05:36.447Z,37.33
2018-10-19T00:08:06.527Z,36.43
2018-10-19T00:10:35.955Z,32.10
2018-10-19T00:13:05.664Z,30.50
2018-10-19T00:15:35.063Z,26.77
2018-10-19T00:18:04.507Z,26.70
2018-10-19T00:20:33.915Z,27.73
2018-10-19T00:23:03.473Z,24.30
2018-10-19T00:25:32.879Z,19.67
2018-10-19T00:28:02.283Z,22.77
2018-10-19T00:30:31.863Z,18.87
2018-10-19T00:33:01.302Z,18.60
2018-10-19T00:35:30.759Z,19.57
2018-10-19T00:38:00.233Z,19.27
2018-10-19T00:40:29.702Z,17.25
2018-10-19T00:42:59.091Z,22.77
2018-10-19T00:45:33.860Z,19.37
2018-10-19T00:48:14.968Z,16.90
2018-10-19T00:50:44.492Z,18.67
2018-10-19T00:53:14.257Z,18.90
2018-10-19T00:55:43.612Z,23.07
2018-10-19T00:58:13.012Z,18.97
2018-10-19T01:00:43.120Z,16.03
2018-10-19T01:03:12.559Z,20.50
2018-10-19T01:05:42.219Z,17.47
2018-10-19T01:08:11.739Z,17.63
2018-10-19T01:10:41.164Z,18.20
2018-10-19T01:13:10.568Z,25.03
2018-10-19T01:15:39.959Z,31.40
2018-10-19T01:18:09.433Z,28.10
2018-10-19T01:20:38.824Z,28.00
2018-10-19T01:23:08.289Z,32.30
2018-10-19T01:25:40.744Z,32.33
2018-10-19T01:28:10.936Z,31.13
2018-10-19T01:30:40.771Z,34.67
2018-10-19T01:33:10.293Z,31.90
2018-10-19T01:35:39.629Z,32.28
2018-10-19T01:38:09.047Z,24.63
2018-10-19T01:40:38.624Z,23.50
2018-10-19T01:43:08.020Z,20.23
2018-10-19T01:45:37.589Z,18.73
2018-10-19T01:48:07.067Z,14.93
2018-10-19T01:50:36.466Z,23.37
2018-10-19T01:53:06.263Z,23.17
2018-10-19T01:55:35.685Z,20.62
2018-10-19T01:58:05.697Z,26.93
2018-10-19T02:00:35.195Z,23.87
2018-10-19T02:03:04.733Z,29.23
2018-10-19T02:05:34.086Z,24.90
2018-10-19T02:08:03.520Z,22.83
2018-10-19T02:10:32.936Z,24.40
2018-10-19T02:13:02.325Z,29.90
2018-10-19T02:15:31.806Z,24.67
2018-10-19T02:18:01.248Z,29.40
2018-10-19T02:20:30.640Z,34.27
2018-10-19T02:23:00.053Z,23.73
2018-10-19T02:25:29.462Z,27.93
2018-10-19T02:27:58.995Z,30.73
2018-10-19T02:30:28.441Z,30.33
2018-10-19T02:32:57.884Z,25.87
2018-10-19T02:35:27.284Z,24.37
2018-10-19T02:37:56.692Z,21.47
2018-10-19T02:40:26.100Z,21.83
2018-10-19T02:42:55.501Z,22.80
2018-10-19T02:45:24.908Z,24.00
2018-10-19T02:47:54.344Z,21.70
2018-10-19T02:50:23.732Z,26.77
2018-10-19T02:52:59.736Z,29.00
2018-10-19T02:55:29.168Z,24.30
2018-10-19T02:57:58.560Z,22.83
2018-10-19T03:00:27.984Z,24.90
2018-10-19T03:02:57.388Z,22.27
2018-10-19T03:05:26.796Z,22.40
2018-10-19T03:07:56.228Z,23.87
2018-10-19T03:10:25.637Z,19.00
2018-10-19T03:12:55.032Z,16.90
2018-10-19T03:15:24.448Z,19.17
2018-10-19T03:17:53.851Z,21.60
2018-10-19T03:20:23.255Z,21.43
2018-10-19T03:22:52.678Z,22.27
2018-10-19T03:25:22.127Z,26.80
2018-10-19T03:27:51.568Z,29.60
2018-10-19T03:30:21.004Z,28.20
2018-10-19T03:32:50.388Z,31.70
2018-10-19T03:35:19.791Z,23.00
2018-10-19T03:37:49.242Z,23.93
2018-10-19T03:40:18.652Z,28.60
2018-10-19T03:42:48.093Z,27.23
2018-10-19T03:45:17.583Z,25.93
2018-10-19T03:47:46.953Z,28.00
2018-10-19T03:50:16.391Z,23.27
2018-10-19T03:52:45.799Z,23.33
2018-10-19T03:55:15.202Z,21.03
2018-10-19T03:57:44.596Z,23.07
2018-10-19T04:00:14.032Z,54.37
2018-10-19T04:02:43.440Z,54.10
2018-10-19T04:05:12.858Z,62.30
2018-10-19T04:07:42.274Z,58.87
2018-10-19T04:10:11.684Z,61.45
2018-10-19T04:12:41.119Z,71.30
2018-10-19T04:15:10.748Z,69.43
2018-10-19T04:17:40.137Z,56.53
2018-10-19T04:20:09.584Z,57.43
2018-10-19T04:22:38.986Z,59.27
2018-10-19T04:25:08.557Z,59.83
2018-10-19T04:27:38.076Z,55.83
2018-10-19T04:30:08.244Z,59.83
2018-10-19T04:32:37.652Z,50.40
2018-10-19T04:35:07.691Z,46.73
2018-10-19T04:37:37.068Z,43.43
2018-10-19T04:40:19.875Z,27.30
2018-10-19T04:42:49.323Z,24.23
2018-10-19T04:45:19.396Z,28.30
2018-10-19T04:47:48.907Z,24.53
2018-10-19T04:50:18.279Z,34.90
2018-10-19T04:52:47.727Z,35.97
2018-10-19T04:55:19.708Z,35.50
2018-10-19T04:57:49.135Z,31.87
2018-10-19T05:00:19.896Z,44.00
2018-10-19T05:02:50.294Z,35.47
2018-10-19T05:05:19.861Z,45.57
2018-10-19T05:07:49.311Z,47.83
2018-10-19T05:10:18.725Z,39.07
2018-10-19T05:12:48.214Z,34.47
2018-10-19T05:15:17.628Z,35.80
2018-10-19T05:17:47.067Z,37.20
2018-10-19T05:20:16.529Z,45.80
2018-10-19T05:22:45.891Z,48.80
2018-10-19T05:25:15.320Z,45.30
2018-10-19T05:27:44.830Z,46.10
2018-10-19T05:30:14.319Z,43.17
2018-10-19T05:32:44.066Z,45.97
2018-10-19T05:35:13.451Z,46.27
2018-10-19T05:37:42.874Z,49.27
2018-10-19T05:40:12.337Z,46.50
2018-10-19T05:42:41.771Z,41.77
2018-10-19T05:45:12.780Z,41.03
2018-10-19T05:47:42.320Z,40.33
2018-10-19T05:50:12.546Z,53.23
2018-10-19T05:52:42.907Z,48.73
2018-10-19T05:55:12.400Z,45.30
2018-10-19T05:57:41.979Z,40.63
2018-10-19T06:00:12.201Z,38.00
2018-10-19T06:02:41.753Z,46.63
2018-10-19T06:05:17.804Z,43.90
2018-10-19T06:07:47.238Z,43.10
2018-10-19T06:10:16.668Z,46.10
2018-10-19T06:12:46.080Z,41.90
2018-10-19T06:15:15.579Z,48.43
2018-10-19T06:17:44.986Z,56.87
2018-10-19T06:20:14.487Z,45.37
2018-10-19T06:22:43.820Z,44.53
2018-10-19T06:25:13.255Z,43.23
2018-10-19T06:27:42.688Z,48.37
2018-10-19T06:30:12.096Z,44.63
2018-10-19T06:32:41.492Z,51.60
2018-10-19T06:35:11.041Z,49.70
2018-10-19T06:37:40.376Z,49.20
2018-10-19T06:40:09.824Z,53.27
2018-10-19T06:42:39.219Z,47.27
2018-10-19T06:45:08.700Z,46.27
2018-10-19T06:47:38.114Z,43.10
2018-10-19T06:50:10.086Z,49.10
2018-10-19T06:52:39.807Z,52.80
2018-10-19T06:55:11.260Z,55.08
2018-10-19T06:57:40.639Z,50.90
2018-10-19T07:00:10.079Z,41.07
2018-10-19T07:02:39.500Z,40.97
2018-10-19T07:05:08.944Z,53.97
2018-10-19T07:07:38.655Z,41.10
2018-10-19T07:10:09.648Z,52.87
2018-10-19T07:12:39.319Z,42.37
2018-10-19T07:15:09.789Z,48.23
2018-10-19T07:17:39.271Z,46.77
2018-10-19T07:20:10.111Z,50.83
2018-10-19T07:22:39.728Z,52.93
2018-10-19T07:25:09.423Z,47.60
2018-10-19T07:27:38.901Z,48.67
2018-10-19T07:30:08.608Z,53.53
2018-10-19T07:32:38.065Z,47.10
2018-10-19T07:35:08.062Z,52.20
2018-10-19T07:37:37.451Z,37.60
2018-10-19T07:42:42.355Z,49.77
2018-10-19T07:45:11.779Z,41.57
2018-10-19T07:47:41.305Z,51.13
2018-10-19T07:50:11.023Z,43.37
2018-10-19T07:52:40.970Z,49.83
2018-10-19T07:55:11.583Z,44.50
2018-10-19T07:57:41.000Z,48.40
2018-10-19T08:00:11.128Z,42.70
2018-10-19T08:02:40.529Z,47.33
2018-10-19T08:05:10.680Z,44.70
2018-10-19T08:07:40.110Z,37.77
2018-10-19T08:10:10.668Z,44.57
2018-10-19T08:12:40.241Z,43.50
2018-10-19T08:15:10.311Z,37.37
2018-10-19T08:17:39.788Z,35.23
2018-10-19T08:20:10.124Z,36.47
2018-10-19T08:22:39.691Z,45.93
2018-10-19T08:25:09.137Z,42.20
2018-10-19T08:27:38.559Z,38.13
2018-10-19T08:30:07.999Z,33.67
2018-10-19T08:32:37.456Z,40.10
2018-10-19T08:35:07.665Z,41.57
2018-10-19T08:37:37.162Z,42.27
2018-10-19T08:40:07.618Z,38.47
2018-10-19T08:42:37.088Z,39.03
2018-10-19T08:45:07.918Z,41.28
2018-10-19T08:47:37.388Z,32.83
2018-10-19T08:50:07.963Z,44.20
2018-10-19T08:52:37.411Z,35.63
2018-10-19T08:55:07.197Z,42.00
2018-10-19T08:57:36.633Z,33.40
2018-10-19T09:00:08.280Z,36.10
2018-10-19T09:02:37.712Z,40.17
2018-10-19T09:05:07.205Z,36.03
2018-10-19T09:07:36.602Z,41.70
2018-10-19T09:10:06.754Z,37.10
2018-10-19T09:12:36.362Z,39.10
2018-10-19T09:15:06.923Z,33.67
2018-10-19T09:17:36.318Z,31.40
2018-10-19T09:20:06.732Z,39.10
2018-10-19T09:22:36.221Z,35.00
2018-10-19T09:25:06.151Z,37.83
2018-10-19T09:27:35.565Z,34.33
2018-10-19T09:30:06.183Z,34.93
2018-10-19T09:32:35.591Z,32.27
2018-10-19T09:35:05.041Z,28.67
2018-10-19T09:37:34.531Z,34.70
2018-10-19T09:40:03.974Z,30.60
2018-10-19T09:42:33.422Z,31.37
2018-10-19T09:45:02.910Z,28.70
2018-10-19T09:47:32.368Z,29.50
2018-10-19T09:50:01.767Z,25.07
2018-10-19T09:52:31.186Z,31.00
2018-10-19T09:55:00.623Z,36.97
2018-10-19T09:57:30.060Z,33.27
2018-10-19T09:59:59.525Z,30.27
2018-10-19T10:02:28.966Z,29.23
2018-10-19T10:04:58.444Z,28.00
2018-10-19T10:07:27.866Z,27.23
2018-10-19T10:09:57.300Z,26.90
2018-10-19T10:12:26.745Z,27.67
2018-10-19T10:14:56.236Z,28.63
2018-10-19T10:17:25.607Z,27.40
2018-10-19T10:19:55.049Z,26.40
2018-10-19T10:22:24.484Z,31.43
2018-10-19T10:24:54.210Z,28.50
2018-10-19T10:27:23.561Z,35.47
2018-10-19T10:29:52.972Z,26.50
2018-10-19T10:32:22.484Z,36.67
2018-10-19T10:34:51.883Z,30.57
2018-10-19T10:37:21.308Z,30.27
2018-10-19T10:39:50.745Z,32.23
2018-10-19T10:42:20.170Z,23.07
2018-10-19T10:44:49.599Z,23.47
2018-10-19T10:47:19.036Z,26.87
2018-10-19T10:49:48.483Z,23.60
2018-10-19T10:52:17.899Z,28.17
2018-10-19T10:54:47.308Z,23.10
2018-10-19T10:57:16.735Z,22.83
2018-10-19T10:59:46.165Z,30.93
2018-10-19T11:02:15.604Z,25.97
2018-10-19T11:04:45.044Z,26.97
2018-10-19T11:07:14.549Z,24.80
2018-10-19T11:09:43.902Z,24.43
2018-10-19T11:12:13.339Z,21.93
2018-10-19T11:14:42.773Z,25.93
2018-10-19T11:17:12.230Z,26.03
2018-10-19T11:19:41.614Z,25.17
2018-10-19T11:22:11.123Z,25.87
2018-10-19T11:24:40.483Z,21.50
2018-10-19T11:27:09.892Z,26.50
2018-10-19T11:29:39.416Z,21.97
2018-10-19T11:32:08.831Z,28.43
2018-10-19T11:34:38.260Z,24.40
2018-10-19T11:37:07.794Z,22.93
2018-10-19T11:39:47.295Z,28.90
2018-10-19T11:42:16.720Z,21.37
2018-10-19T11:44:46.152Z,25.43
2018-10-19T11:47:15.561Z,20.63
2018-10-19T11:49:44.979Z,22.57
2018-10-19T11:52:14.495Z,17.67
2018-10-19T11:54:43.844Z,20.13
2018-10-19T11:57:14.496Z,24.73
2018-10-19T11:59:43.868Z,25.77
2018-10-19T12:02:13.272Z,21.40
2018-10-19T12:04:42.728Z,23.62
2018-10-19T12:07:12.227Z,23.07
2018-10-19T12:09:41.617Z,19.63
2018-10-19T12:12:11.061Z,23.30
2018-10-19T12:14:40.472Z,18.13
2018-10-19T12:17:09.986Z,20.80
2018-10-19T12:19:39.346Z,19.60
2018-10-19T12:22:08.755Z,21.07
2018-10-19T12:24:38.208Z,26.10
2018-10-19T12:27:07.718Z,25.87
2018-10-19T12:29:37.167Z,21.37
2018-10-19T12:32:07.458Z,21.93
2018-10-19T12:34:37.095Z,23.83
2018-10-19T12:37:07.582Z,16.83
2018-10-19T12:39:36.988Z,21.90
2018-10-19T12:42:06.821Z,16.20
2018-10-19T12:44:36.444Z,16.67
2018-10-19T12:47:24.665Z,17.90
2018-10-19T12:49:54.076Z,18.90
2018-10-19T12:52:23.563Z,18.97
2018-10-19T12:54:53.004Z,20.90
2018-10-19T12:57:22.448Z,20.90
2018-10-19T12:59:51.839Z,21.57
2018-10-19T13:02:21.293Z,20.53
2018-10-19T13:04:50.730Z,19.03
2018-10-19T13:07:20.296Z,17.30
2018-10-19T13:09:49.884Z,24.60
2018-10-19T13:12:19.299Z,29.23
2018-10-19T13:14:48.738Z,21.47
2018-10-19T13:17:18.172Z,19.77
2018-10-19T13:19:47.594Z,20.97
2018-10-19T13:22:17.010Z,23.87
2018-10-19T13:24:46.444Z,21.40
2018-10-19T13:27:15.941Z,19.00
2018-10-19T13:29:45.312Z,20.93
2018-10-19T13:32:14.730Z,18.83
2018-10-19T13:34:44.124Z,17.20
2018-10-19T13:37:13.535Z,20.50
2018-10-19T13:39:42.960Z,17.90
2018-10-19T13:42:12.415Z,22.37
2018-10-19T13:44:41.930Z,17.33
2018-10-19T13:47:11.424Z,17.67
2018-10-19T13:49:40.779Z,18.60
2018-10-19T13:52:10.223Z,21.47
2018-10-19T13:54:39.671Z,19.53
2018-10-19T13:57:09.155Z,21.20
2018-10-19T13:59:38.522Z,21.40
2018-10-19T14:02:07.921Z,20.43
2018-10-19T14:04:37.371Z,17.60
2018-10-19T14:07:06.783Z,20.57
2018-10-19T14:09:36.188Z,23.10
2018-10-19T14:12:05.987Z,19.60
2018-10-19T14:14:35.389Z,17.00
2018-10-19T14:17:04.992Z,17.60
2018-10-19T14:19:34.424Z,16.97
2018-10-19T14:22:03.832Z,20.60
2018-10-19T14:24:33.250Z,16.20
2018-10-19T14:27:02.750Z,19.07
2018-10-19T14:29:32.096Z,14.97
2018-10-19T14:32:01.510Z,19.10
2018-10-19T14:34:30.956Z,21.30
2018-10-19T14:37:00.419Z,18.73
2018-10-19T14:39:30.068Z,18.37
2018-10-19T14:41:59.528Z,17.30
2018-10-19T14:44:28.929Z,15.53
2018-10-19T14:46:58.344Z,22.17
2018-10-19T14:49:27.795Z,14.97
2018-10-19T14:51:57.207Z,18.97
2018-10-19T14:54:26.717Z,15.97
2018-10-19T14:56:56.122Z,21.83
2018-10-19T14:59:25.547Z,20.37
2018-10-19T15:01:55.003Z,26.70
2018-10-19T15:04:24.419Z,23.10
2018-10-19T15:06:53.871Z,31.50
2018-10-19T15:09:23.434Z,23.87
2018-10-19T15:11:52.758Z,22.17
2018-10-19T15:14:22.229Z,20.47
2018-10-19T15:16:51.671Z,23.40
2018-10-19T15:19:21.088Z,20.30
2018-10-19T15:21:50.579Z,20.80
2018-10-19T15:24:20.016Z,21.30
2018-10-19T15:26:49.474Z,26.23
2018-10-19T15:29:18.986Z,21.10
2018-10-19T15:31:48.546Z,18.07
2018-10-19T15:34:18.066Z,18.80
2018-10-19T15:36:47.472Z,19.23
2018-10-19T15:39:17.277Z,20.05
2018-10-19T15:41:46.671Z,15.93
2018-10-19T15:44:17.388Z,22.67
2018-10-19T15:46:46.805Z,16.20
2018-10-19T15:49:17.330Z,18.15
2018-10-19T15:51:46.772Z,21.87
2018-10-19T15:54:17.263Z,20.60
2018-10-19T15:56:46.697Z,21.30
2018-10-19T15:59:17.344Z,15.53
2018-10-19T16:01:46.864Z,20.63
2018-10-19T16:04:17.311Z,19.05
2018-10-19T16:06:46.735Z,18.50
2018-10-19T16:09:17.544Z,18.27
2018-10-19T16:11:47.044Z,16.60
2018-10-19T16:14:17.323Z,18.60
2018-10-19T16:16:46.756Z,20.23
2018-10-19T16:19:17.307Z,18.28
2018-10-19T16:21:46.716Z,18.37
2018-10-19T16:24:17.379Z,17.17
2018-10-19T16:26:46.814Z,19.57
2018-10-19T16:29:17.292Z,19.20
2018-10-19T16:31:46.736Z,20.83
2018-10-19T16:34:17.377Z,17.67
2018-10-19T16:36:46.831Z,17.17
2018-10-19T16:39:17.339Z,15.20
2018-10-19T16:41:46.776Z,22.57
2018-10-19T16:44:17.291Z,19.74
2018-10-19T16:46:46.749Z,18.60
2018-10-19T16:49:17.284Z,18.40
2018-10-19T16:51:46.703Z,18.60
2018-10-19T16:54:17.456Z,15.80
2018-10-19T16:56:46.811Z,11.00
2018-10-19T16:59:17.444Z,17.36
2018-10-19T17:01:46.853Z,18.20
2018-10-19T17:04:17.318Z,16.93
2018-10-19T17:06:46.728Z,13.43
2018-10-19T17:09:17.584Z,13.20
2018-10-19T17:11:46.947Z,13.17
2018-10-19T17:14:17.382Z,13.00
2018-10-19T17:16:46.867Z,13.23
2018-10-19T17:19:17.380Z,12.00
2018-10-19T17:21:46.759Z,16.20
2018-10-19T17:24:17.433Z,10.17
2018-10-19T17:26:46.856Z,12.70
2018-10-19T17:29:17.426Z,16.54
2018-10-19T17:31:46.817Z,17.40
2018-10-19T17:34:17.345Z,9.62
2018-10-19T17:36:46.816Z,13.97
2018-10-19T17:39:17.402Z,15.92
2018-10-19T17:41:46.811Z,13.97
2018-10-19T17:44:17.585Z,10.84
2018-10-19T17:46:47.124Z,15.50
2018-10-19T17:49:17.572Z,12.95
2018-10-19T17:51:47.692Z,11.40
2018-10-19T17:54:18.132Z,14.58
2018-10-19T17:56:47.596Z,19.17
2018-10-19T17:59:18.003Z,11.65
2018-10-19T18:01:47.508Z,16.00
2018-10-19T18:04:17.413Z,12.63
2018-10-19T18:06:47.393Z,16.23
2018-10-19T18:09:17.931Z,17.92
2018-10-19T18:11:48.350Z,12.00
2018-10-19T18:14:18.013Z,13.07
2018-10-19T18:16:50.290Z,15.60
2018-10-19T18:19:21.609Z,15.60
2018-10-19T18:21:53.111Z,14.50
2018-10-19T18:24:24.386Z,12.93
2018-10-19T18:26:57.424Z,13.57
2018-10-19T18:29:30.444Z,13.83
2018-10-19T18:32:03.105Z,14.57
2018-10-19T18:34:36.223Z,16.57
2018-10-19T18:37:09.464Z,13.40
2018-10-19T18:39:42.551Z,10.63
2018-10-19T18:42:15.760Z,13.30
2018-10-19T18:44:48.445Z,10.93
2018-10-19T18:47:21.822Z,11.57
2018-10-19T18:49:54.594Z,11.93
2018-10-19T18:52:27.700Z,14.47
2018-10-19T18:55:00.794Z,13.00
2018-10-19T18:57:33.852Z,13.50
2018-10-19T19:00:09.204Z,15.50
2018-10-19T19:02:42.072Z,14.20
2018-10-19T19:05:14.872Z,13.70
2018-10-19T19:07:47.942Z,13.87
2018-10-19T19:10:21.026Z,14.50
2018-10-19T19:12:59.012Z,11.20
2018-10-19T19:15:31.992Z,11.43
2018-10-19T19:18:05.715Z,12.03
2018-10-19T19:20:38.993Z,12.37
2018-10-19T19:23:11.983Z,15.80
2018-10-19T19:25:50.239Z,11.37
2018-10-19T19:28:23.411Z,19.30
2018-10-19T19:30:57.938Z,12.33
2018-10-19T19:33:35.615Z,17.93
2018-10-19T19:36:08.366Z,13.70
2018-10-19T19:38:41.553Z,12.80
2018-10-19T19:41:19.236Z,14.67
2018-10-19T19:43:52.255Z,20.47
2018-10-19T19:46:25.359Z,19.47
2018-10-19T19:49:03.185Z,11.80
2018-10-19T19:51:37.137Z,12.30
2018-10-19T19:54:10.412Z,14.60
2018-10-19T19:56:43.338Z,15.53
2018-10-19T19:59:16.784Z,18.80
2018-10-19T20:01:49.851Z,15.70
2018-10-19T20:04:22.691Z,15.47
2018-10-19T20:06:55.758Z,18.17
2018-10-19T20:09:29.035Z,16.33
2018-10-19T20:12:02.161Z,16.43
2018-10-19T20:14:35.947Z,15.93
2018-10-19T20:17:08.982Z,18.70
2018-10-19T20:19:42.060Z,15.80
2018-10-19T20:22:15.283Z,18.00
2018-10-19T20:24:48.903Z,14.50
2018-10-19T20:27:21.964Z,13.40
2018-10-19T20:29:56.282Z,16.83
2018-10-19T20:32:29.585Z,13.10
2018-10-19T20:35:02.983Z,16.40
2018-10-19T20:37:36.079Z,15.50
2018-10-19T20:40:09.216Z,14.73
2018-10-19T20:42:42.227Z,14.50
2018-10-19T20:45:15.827Z,14.50
2018-10-19T20:47:48.789Z,17.40
2018-10-19T20:50:21.972Z,14.80
2018-10-19T20:52:54.766Z,15.70
2018-10-19T20:55:27.511Z,14.20
2018-10-19T20:57:59.492Z,17.50
2018-10-19T21:00:30.720Z,18.20
2018-10-19T21:03:00.424Z,18.37
2018-10-19T21:05:29.882Z,19.60
2018-10-19T21:07:59.487Z,21.57
2018-10-19T21:10:28.927Z,15.60
2018-10-19T21:12:58.355Z,20.00
2018-10-19T21:15:28.932Z,16.00
2018-10-19T21:17:58.365Z,20.17
2018-10-19T21:20:27.796Z,13.97
2018-10-19T21:22:57.277Z,23.93
2018-10-19T21:25:26.704Z,15.57
2018-10-19T21:27:56.155Z,22.40
2018-10-19T21:30:25.669Z,23.80
2018-10-19T21:32:55.187Z,20.63
2018-10-19T21:35:24.667Z,12.17
2018-10-19T21:37:54.174Z,13.63
2018-10-19T21:40:25.033Z,19.10
2018-10-19T21:42:54.672Z,21.83
2018-10-19T21:45:24.341Z,17.87
2018-10-19T21:47:54.046Z,25.40
2018-10-19T21:50:23.952Z,16.37
2018-10-19T21:52:54.408Z,18.77
2018-10-19T21:55:23.823Z,22.75
2018-10-19T21:57:53.267Z,18.60
2018-10-19T22:00:22.683Z,13.80
2018-10-19T22:02:52.216Z,18.43
2018-10-19T22:05:21.623Z,20.43
2018-10-19T22:07:51.071Z,19.60
2018-10-19T22:10:20.556Z,23.23
2018-10-19T22:12:49.965Z,25.50
2018-10-19T22:15:19.411Z,18.70
2018-10-19T22:17:48.833Z,13.97
2018-10-19T22:20:18.286Z,16.70
2018-10-19T22:22:47.717Z,18.80
2018-10-19T22:25:17.195Z,23.20
2018-10-19T22:27:46.627Z,18.53
2018-10-19T22:30:16.139Z,19.47
2018-10-19T22:32:45.561Z,14.77
2018-10-19T22:35:15.039Z,17.13
2018-10-19T22:37:44.428Z,16.23
2018-10-19T22:40:13.844Z,18.73
2018-10-19T22:42:43.302Z,16.50
2018-10-19T22:45:12.747Z,18.83
2018-10-19T22:47:42.155Z,12.20
2018-10-19T22:50:11.580Z,15.20
2018-10-19T22:52:41.011Z,17.00
2018-10-19T22:55:10.490Z,18.47
2018-10-19T22:57:39.908Z,17.10
2018-10-19T23:00:09.338Z,16.43
2018-10-19T23:02:38.807Z,22.93
2018-10-19T23:05:08.393Z,12.53
2018-10-19T23:07:37.736Z,14.00
2018-10-19T23:10:08.315Z,12.07
2018-10-19T23:12:37.796Z,13.50
2018-10-19T23:15:07.867Z,12.70
2018-10-19T23:17:37.465Z,14.20
2018-10-19T23:20:07.448Z,17.33
2018-10-19T23:22:36.935Z,17.23
2018-10-19T23:25:07.972Z,16.70
2018-10-19T23:27:37.415Z,13.27
2018-10-19T23:30:07.712Z,15.50
2018-10-19T23:32:37.136Z,12.10
2018-10-19T23:35:07.923Z,13.73
2018-10-19T23:37:37.385Z,16.47
2018-10-19T23:40:07.783Z,20.27
2018-10-19T23:42:37.255Z,19.93
2018-10-19T23:45:08.151Z,16.37
2018-10-19T23:47:37.598Z,21.10
2018-10-19T23:50:07.971Z,18.37
2018-10-19T23:52:37.436Z,15.60
2018-10-19T23:55:07.340Z,17.80
2018-10-19T23:57:36.756Z,14.50
